Ceylon — 9VMU6 — position and weather

sailwx.info

Track history (hours):
 
Tides and Currents Weather Stations Pressure Air Temp Water Temp Dewpoint Dewpoint Depression Visibility Wind Speed Wind Dir Waves Ship Positions

Ceylon

Last reported at 2017-Dec-10 15:33 UTC. Time now 2017-Dec-15 23:44 UTC.
Position S 00°16' W 046°51'.

Length 180 m; draft 6.8 m.

Type: Tanker. MMSI: 563847000.

Date/timePositionNaut miles runAvg speedWind from/ knotsBaromVisibWave heightAir tempDewpointWater temp
2017-Dec-10 15:33S 00°16' W 046°51'111.9
2017-Dec-10 15:26S 00°16' W 046°53'512.0
2017-Dec-10 14:59S 00°15' W 046°58'611.5
2017-Dec-10 14:29S 00°15' W 047°04'611.8
2017-Dec-10 13:58S 00°14' W 047°10'511.8
2017-Dec-10 13:30S 00°14' W 047°15'612.1
2017-Dec-10 13:00S 00°13' W 047°21'611.6
2017-Dec-10 12:30S 00°14' W 047°27'612.6
2017-Dec-10 12:00S 00°18' W 047°32'612.8
2017-Dec-10 11:30S 00°22' W 047°37'713.4
2017-Dec-10 11:00S 00°25' W 047°43'612.7
2017-Dec-10 10:30S 00°27' W 047°49'510.4
2017-Dec-10 10:01S 00°29' W 047°54'815.6
2017-Dec-10 09:31S 00°31' W 048°02'816.1
2017-Dec-10 09:01S 00°36' W 048°08'714.6
2017-Dec-10 08:30S 00°41' W 048°13'713.5
2017-Dec-10 08:00S 00°47' W 048°17'612.7
2017-Dec-10 07:31S 00°52' W 048°20'611.8
2017-Dec-10 07:00S 00°57' W 048°23'611.5
2017-Dec-10 06:30S 01°01' W 048°27'611.2
2017-Dec-10 06:00S 01°07' W 048°29'510.1
2017-Dec-10 05:31S 01°12' W 048°29'3 6.3
2017-Dec-10 05:01S 01°15' W 048°30'5 9.5
2017-Dec-10 04:31S 01°20' W 048°30'5 9.1
2017-Dec-10 04:00S 01°24' W 048°30'0 0.6
2017-Dec-10 03:29S 01°24' W 048°30'0 0.0
2017-Dec-10 02:59S 01°24' W 048°30'0 0.0
2017-Dec-10 02:29S 01°24' W 048°30'0 0.0
2017-Dec-10 01:59S 01°24' W 048°30'0 0.0
2017-Dec-10 01:29S 01°24' W 048°30'0 0.0
2017-Dec-10 00:59S 01°24' W 048°30'0 0.0
2017-Dec-10 00:29S 01°24' W 048°30'0 0.0
2017-Dec-09 23:59S 01°24' W 048°30'0 0.0
2017-Dec-09 23:29S 01°24' W 048°30'0 0.0
2017-Dec-09 22:59S 01°24' W 048°30'0 0.0
2017-Dec-09 22:29S 01°24' W 048°30'0 0.0
2017-Dec-09 21:59S 01°24' W 048°30'0 0.0
2017-Dec-08 18:17S 01°24' W 048°30'0 0.2
2017-Dec-08 17:59S 01°24' W 048°30'0 0.2
2017-Dec-08 17:29S 01°24' W 048°30'0 0.4
2017-Dec-08 17:00S 01°24' W 048°30'1 2.7
2017-Dec-08 16:30S 01°25' W 048°31'0 0.5
2017-Dec-08 16:00S 01°25' W 048°31'0 0.1
2017-Dec-08 15:31S 01°25' W 048°31'0 0.1
2017-Dec-08 15:00S 01°25' W 048°31'0 0.3
2017-Dec-08 14:30S 01°25' W 048°31'0 0.1
2017-Dec-08 14:00S 01°25' W 048°31'0 0.0
2017-Dec-08 13:30S 01°25' W 048°31'0 0.0
2017-Dec-08 13:00S 01°25' W 048°31'0 0.4
2017-Dec-08 12:30S 01°24' W 048°31'1 1.0
2017-Dec-08 12:00S 01°25' W 048°31'0 0.7
2017-Dec-08 11:30S 01°25' W 048°31'0 0.0
2017-Dec-08 11:00S 01°25' W 048°31'0 0.0
2017-Dec-08 10:30S 01°25' W 048°31'0 0.0
2017-Dec-08 10:00S 01°25' W 048°31'0 0.0
2017-Dec-08 09:30S 01°25' W 048°31'0 0.0
2017-Dec-08 09:00S 01°25' W 048°31'0 0.1
2017-Dec-08 08:30S 01°25' W 048°31'0 0.0
2017-Dec-08 08:00S 01°25' W 048°31'0 0.2
2017-Dec-08 07:30S 01°25' W 048°31'0 0.8
2017-Dec-08 07:00S 01°25' W 048°31'2 4.8
2017-Dec-08 06:30S 01°23' W 048°30'612.8
2017-Dec-08 06:00S 01°17' W 048°30'611.7
2017-Dec-08 05:30S 01°11' W 048°29'510.7
2017-Dec-08 05:00S 01°05' W 048°28'714.9
2017-Dec-08 04:30S 00°59' W 048°24'915.5
2017-Dec-08 03:54S 00°51' W 048°19'816.7
2017-Dec-08 03:26S 00°44' W 048°15'715.4
2017-Dec-08 03:00S 00°39' W 048°12'815.9
2017-Dec-08 02:30S 00°34' W 048°05'816.0
2017-Dec-08 01:59S 00°30' W 047°59'713.7
2017-Dec-08 01:30S 00°29' W 047°52'510.5
2017-Dec-08 01:00S 00°27' W 047°47'2 1.7
2017-Dec-07 23:43S 00°25' W 047°46'1 2.9
2017-Dec-07 23:30S 00°25' W 047°46'1 2.6
2017-Dec-07 23:00S 00°24' W 047°45'1 2.1
2017-Dec-07 22:30S 00°24' W 047°44'2 4.4
2017-Dec-07 22:00S 00°24' W 047°41'611.9
2017-Dec-07 21:30S 00°21' W 047°36'612.3
2017-Dec-07 21:00S 00°17' W 047°31'611.7
2017-Dec-07 20:30S 00°14' W 047°26'510.7
2017-Dec-07 20:00S 00°14' W 047°21'510.2
2017-Dec-07 19:30S 00°14' W 047°16'610.8
2017-Dec-07 18:59S 00°14' W 047°10'610.6
2017-Dec-07 18:22S 00°15' W 047°04'  
Track history (hours):
 
Tides and Currents Weather Stations Pressure Air Temp Water Temp Dewpoint Dewpoint Depression Visibility Wind Speed Wind Dir Waves Ship Positions

Ceylon

Last reported at 2017-Dec-10 15:33 UTC. Time now 2017-Dec-15 23:44 UTC.
Position S 00°16' W 046°51'.

Length 180 m; draft 6.8 m.

Type: Tanker. MMSI: 563847000.

Date/timePositionNaut miles runAvg speedWind from/ knotsBaromVisibWave heightAir tempDewpointWater temp
2017-Dec-10 15:33S 00°16' W 046°51'111.9
2017-Dec-10 15:26S 00°16' W 046°53'512.0
2017-Dec-10 14:59S 00°15' W 046°58'611.5
2017-Dec-10 14:29S 00°15' W 047°04'611.8
2017-Dec-10 13:58S 00°14' W 047°10'511.8
2017-Dec-10 13:30S 00°14' W 047°15'612.1
2017-Dec-10 13:00S 00°13' W 047°21'611.6
2017-Dec-10 12:30S 00°14' W 047°27'612.6
2017-Dec-10 12:00S 00°18' W 047°32'612.8
2017-Dec-10 11:30S 00°22' W 047°37'713.4
2017-Dec-10 11:00S 00°25' W 047°43'612.7
2017-Dec-10 10:30S 00°27' W 047°49'510.4
2017-Dec-10 10:01S 00°29' W 047°54'815.6
2017-Dec-10 09:31S 00°31' W 048°02'816.1
2017-Dec-10 09:01S 00°36' W 048°08'714.6
2017-Dec-10 08:30S 00°41' W 048°13'713.5
2017-Dec-10 08:00S 00°47' W 048°17'612.7
2017-Dec-10 07:31S 00°52' W 048°20'611.8
2017-Dec-10 07:00S 00°57' W 048°23'611.5
2017-Dec-10 06:30S 01°01' W 048°27'611.2
2017-Dec-10 06:00S 01°07' W 048°29'510.1
2017-Dec-10 05:31S 01°12' W 048°29'3 6.3
2017-Dec-10 05:01S 01°15' W 048°30'5 9.5
2017-Dec-10 04:31S 01°20' W 048°30'5 9.1
2017-Dec-10 04:00S 01°24' W 048°30'0 0.6
2017-Dec-10 03:29S 01°24' W 048°30'0 0.0
2017-Dec-10 02:59S 01°24' W 048°30'0 0.0
2017-Dec-10 02:29S 01°24' W 048°30'0 0.0
2017-Dec-10 01:59S 01°24' W 048°30'0 0.0
2017-Dec-10 01:29S 01°24' W 048°30'0 0.0
2017-Dec-10 00:59S 01°24' W 048°30'0 0.0
2017-Dec-10 00:29S 01°24' W 048°30'0 0.0
2017-Dec-09 23:59S 01°24' W 048°30'0 0.0
2017-Dec-09 23:29S 01°24' W 048°30'0 0.0
2017-Dec-09 22:59S 01°24' W 048°30'0 0.0
2017-Dec-09 22:29S 01°24' W 048°30'0 0.0
2017-Dec-09 21:59S 01°24' W 048°30'0 0.0
2017-Dec-08 18:17S 01°24' W 048°30'0 0.2
2017-Dec-08 17:59S 01°24' W 048°30'0 0.2
2017-Dec-08 17:29S 01°24' W 048°30'0 0.4
2017-Dec-08 17:00S 01°24' W 048°30'1 2.7
2017-Dec-08 16:30S 01°25' W 048°31'0 0.5
2017-Dec-08 16:00S 01°25' W 048°31'0 0.1
2017-Dec-08 15:31S 01°25' W 048°31'0 0.1
2017-Dec-08 15:00S 01°25' W 048°31'0 0.3
2017-Dec-08 14:30S 01°25' W 048°31'0 0.1
2017-Dec-08 14:00S 01°25' W 048°31'0 0.0
2017-Dec-08 13:30S 01°25' W 048°31'0 0.0
2017-Dec-08 13:00S 01°25' W 048°31'0 0.4
2017-Dec-08 12:30S 01°24' W 048°31'1 1.0
2017-Dec-08 12:00S 01°25' W 048°31'0 0.7
2017-Dec-08 11:30S 01°25' W 048°31'0 0.0
2017-Dec-08 11:00S 01°25' W 048°31'0 0.0
2017-Dec-08 10:30S 01°25' W 048°31'0 0.0
2017-Dec-08 10:00S 01°25' W 048°31'0 0.0
2017-Dec-08 09:30S 01°25' W 048°31'0 0.0
2017-Dec-08 09:00S 01°25' W 048°31'0 0.1
2017-Dec-08 08:30S 01°25' W 048°31'0 0.0
2017-Dec-08 08:00S 01°25' W 048°31'0 0.2
2017-Dec-08 07:30S 01°25' W 048°31'0 0.8
2017-Dec-08 07:00S 01°25' W 048°31'2 4.8
2017-Dec-08 06:30S 01°23' W 048°30'612.8
2017-Dec-08 06:00S 01°17' W 048°30'611.7
2017-Dec-08 05:30S 01°11' W 048°29'510.7
2017-Dec-08 05:00S 01°05' W 048°28'714.9
2017-Dec-08 04:30S 00°59' W 048°24'915.5
2017-Dec-08 03:54S 00°51' W 048°19'816.7
2017-Dec-08 03:26S 00°44' W 048°15'715.4
2017-Dec-08 03:00S 00°39' W 048°12'815.9
2017-Dec-08 02:30S 00°34' W 048°05'816.0
2017-Dec-08 01:59S 00°30' W 047°59'713.7
2017-Dec-08 01:30S 00°29' W 047°52'510.5
2017-Dec-08 01:00S 00°27' W 047°47'2 1.7
2017-Dec-07 23:43S 00°25' W 047°46'1 2.9
2017-Dec-07 23:30S 00°25' W 047°46'1 2.6
2017-Dec-07 23:00S 00°24' W 047°45'1 2.1
2017-Dec-07 22:30S 00°24' W 047°44'2 4.4
2017-Dec-07 22:00S 00°24' W 047°41'611.9
2017-Dec-07 21:30S 00°21' W 047°36'612.3
2017-Dec-07 21:00S 00°17' W 047°31'611.7
2017-Dec-07 20:30S 00°14' W 047°26'510.7
2017-Dec-07 20:00S 00°14' W 047°21'510.2
2017-Dec-07 19:30S 00°14' W 047°16'610.8
2017-Dec-07 18:59S 00°14' W 047°10'610.6
2017-Dec-07 18:22S 00°15' W 047°04'  

Dump ship's entire track history